Time;durP1;ratioP1;P1;durP2;ratioP2;P2;SDS_P1;SDS_P2;PMS_P1;PMS_P2;Temp;Humidity;BMP_temperature;BMP_pressure;BME280_temperature;BME280_humidity;BME280_pressure;Samples;Min_cycle;Max_cycle;Signal;HPM_P1;HPM_P2
2022/02/02 00:00:18;;;;;;;45.35;30.13;;;;;;;;;;4995632;28;20223;-84
2022/02/02 00:02:49;;;;;;;34.38;29.10;;;;;;;;;;4995568;28;20239;-84
2022/02/02 00:05:23;;;;;;;40.90;30.67;;;;;;;;;;4995162;28;20276;-84
2022/02/02 00:07:57;;;;;;;40.13;31.27;;;;;;;;;;5006997;28;20326;-84
2022/02/02 00:13:29;;;;;;;37.53;31.40;;;;;;;;;;5014461;28;20203;-84
2022/02/02 00:16:04;;;;;;;37.38;29.70;;;;;;;;;;5015038;28;20220;-84
2022/02/02 00:18:46;;;;;;;39.63;36.00;;;;;;;;;;5014769;28;20225;-84
2022/02/02 00:21:20;;;;;;;52.22;32.10;;;;;;;;;;5014910;28;20227;-84
2022/02/02 00:23:54;;;;;;;58.88;46.33;;;;;;;;;;4997083;28;20209;-84
2022/02/02 00:26:26;;;;;;;62.72;32.35;;;;;;;;;;5014844;28;20196;-84
2022/02/02 00:28:59;;;;;;;64.95;34.30;;;;;;;;;;5014675;28;20536;-83
2022/02/02 00:31:32;;;;;;;35.25;31.33;;;;;;;;;;4998071;28;20711;-83
2022/02/02 00:34:03;;;;;;;37.55;32.08;;;;;;;;;;5013938;28;20227;-83
2022/02/02 00:36:37;;;;;;;39.17;30.60;;;;;;;;;;5014359;28;20265;-83
2022/02/02 00:39:06;;;;;;;31.85;28.90;;;;;;;;;;4996306;28;20207;-82
2022/02/02 00:41:33;;;;;;;32.42;28.83;;;;;;;;;;5014408;28;20194;-83
2022/02/02 00:44:03;;;;;;;33.42;29.23;;;;;;;;;;4996132;28;20203;-83
2022/02/02 00:46:30;;;;;;;32.65;26.83;;;;;;;;;;5013982;28;20227;-83
2022/02/02 00:49:03;;;;;;;31.45;28.35;;;;;;;;;;5013934;28;20195;-82
2022/02/02 00:51:37;;;;;;;35.63;29.20;;;;;;;;;;5014010;28;20192;-83
2022/02/02 00:54:06;;;;;;;34.83;30.20;;;;;;;;;;5013563;28;20257;-83
2022/02/02 00:56:34;;;;;;;34.15;30.85;;;;;;;;;;5013701;28;20256;-82
2022/02/02 00:59:01;;;;;;;32.28;28.73;;;;;;;;;;5013913;28;20193;-83
2022/02/02 01:01:29;;;;;;;37.15;33.30;;;;;;;;;;5014156;28;20198;-83
2022/02/02 01:03:56;;;;;;;31.58;28.65;;;;;;;;;;5013668;28;20215;-83
2022/02/02 01:06:25;;;;;;;60.38;29.98;;;;;;;;;;5013754;28;20625;-83
2022/02/02 01:09:09;;;;;;;40.17;29.80;;;;;;;;;;5013210;28;20214;-83
2022/02/02 01:20:03;;;;;;;71.70;63.05;;;;;;;;;;5013783;28;20187;-83
2022/02/02 01:28:02;;;;;;;37.78;31.05;;;;;;;;;;5013430;28;20193;-83
2022/02/02 01:30:29;;;;;;;32.45;29.00;;;;;;;;;;5013116;28;20701;-83
2022/02/02 01:32:57;;;;;;;37.47;29.55;;;;;;;;;;5013514;28;20213;-83
2022/02/02 01:35:25;;;;;;;50.15;30.27;;;;;;;;;;5013563;28;20545;-83
2022/02/02 01:37:53;;;;;;;39.45;31.17;;;;;;;;;;5013574;28;20218;-83
2022/02/02 01:40:29;;;;;;;110.70;77.93;;;;;;;;;;5013532;28;20611;-83
2022/02/02 01:43:01;;;;;;;38.17;30.20;;;;;;;;;;4997179;28;20514;-83
2022/02/02 01:45:35;;;;;;;35.90;30.15;;;;;;;;;;5013377;28;20190;-83
2022/02/02 01:48:13;;;;;;;35.42;30.02;;;;;;;;;;4996518;28;20198;-83
2022/02/02 01:50:57;;;;;;;37.00;30.55;;;;;;;;;;5013429;28;20225;-83
2022/02/02 01:53:33;;;;;;;37.53;31.20;;;;;;;;;;5013357;28;20196;-83
2022/02/02 01:56:01;;;;;;;42.17;31.83;;;;;;;;;;5014499;28;20186;-83
2022/02/02 01:58:51;;;;;;;34.70;29.55;;;;;;;;;;5017278;28;20226;-83
2022/02/02 02:01:20;;;;;;;38.22;30.08;;;;;;;;;;5017185;28;20187;-84
2022/02/02 02:03:48;;;;;;;42.63;30.73;;;;;;;;;;4999384;28;20648;-83
2022/02/02 02:06:17;;;;;;;129.80;81.68;;;;;;;;;;5017328;28;20200;-83
2022/02/02 02:08:45;;;;;;;34.40;31.05;;;;;;;;;;5016747;28;20346;-84
2022/02/02 02:11:19;;;;;;;32.33;29.35;;;;;;;;;;5016998;28;20651;-84
2022/02/02 02:16:29;;;;;;;32.85;29.63;;;;;;;;;;5003969;28;20212;-83
2022/02/02 02:18:58;;;;;;;33.75;30.48;;;;;;;;;;5017255;28;20219;-84
2022/02/02 02:21:26;;;;;;;33.45;30.13;;;;;;;;;;5016740;28;20223;-84
2022/02/02 02:23:55;;;;;;;34.45;30.75;;;;;;;;;;4999109;28;20213;-83
2022/02/02 02:26:25;;;;;;;33.45;30.30;;;;;;;;;;5016525;28;20218;-84
2022/02/02 02:29:08;;;;;;;31.55;29.33;;;;;;;;;;5016971;28;20196;-84
2022/02/02 02:31:44;;;;;;;37.38;34.22;;;;;;;;;;5016634;28;20282;-84
2022/02/02 02:34:27;;;;;;;35.20;31.40;;;;;;;;;;5016974;28;20191;-84
2022/02/02 02:37:14;;;;;;;34.47;30.98;;;;;;;;;;5016749;28;20188;-84
2022/02/02 02:39:53;;;;;;;35.50;31.80;;;;;;;;;;5016902;28;20274;-84
2022/02/02 02:56:22;;;;;;;32.13;29.13;;;;;;;;;;4917677;29;20218;-84
2022/02/02 02:58:59;;;;;;;32.28;29.38;;;;;;;;;;4917507;29;20233;-83
2022/02/02 03:01:46;;;;;;;33.75;29.80;;;;;;;;;;4917778;29;20206;-84
2022/02/02 03:32:17;;;;;;;151.98;84.85;;;;;;;;;;4906389;29;20235;-85
2022/02/02 03:35:03;;;;;;;27.60;25.60;;;;;;;;;;4955416;29;20251;-85
2022/02/02 03:51:32;;;;;;;24.52;22.52;;;;;;;;;;5015360;28;20262;-83
2022/02/02 03:56:57;;;;;;;26.08;24.55;;;;;;;;;;5015587;28;20186;-85
2022/02/02 04:05:06;;;;;;;153.07;82.15;;;;;;;;;;5004929;28;20257;-85
2022/02/02 04:07:45;;;;;;;26.30;23.98;;;;;;;;;;4997432;28;20233;-85
2022/02/02 04:10:12;;;;;;;25.88;24.27;;;;;;;;;;5015108;28;20205;-84
2022/02/02 04:12:49;;;;;;;29.25;26.52;;;;;;;;;;5014754;28;20641;-84
2022/02/02 04:16:51;;;;;;;26.45;24.38;;;;;;;;;;5014834;28;20202;-84
2022/02/02 04:51:51;;;;;;;25.35;23.40;;;;;;;;;;5014297;28;20290;-84
2022/02/02 04:57:45;;;;;;;28.13;23.88;;;;;;;;;;5013978;28;20210;-84
2022/02/02 05:05:52;;;;;;;26.42;23.60;;;;;;;;;;5000859;28;20253;-85
2022/02/02 05:08:28;;;;;;;25.98;23.92;;;;;;;;;;5014056;28;20247;-84
2022/02/02 05:16:37;;;;;;;27.83;25.33;;;;;;;;;;5014036;28;20189;-84
2022/02/02 05:49:33;;;;;;;25.60;23.52;;;;;;;;;;5013593;28;20273;-85
2022/02/02 05:52:00;;;;;;;25.77;23.63;;;;;;;;;;5013220;28;20192;-85
2022/02/02 05:54:28;;;;;;;25.63;23.35;;;;;;;;;;5013536;28;20228;-84
2022/02/02 05:56:57;;;;;;;28.08;25.08;;;;;;;;;;5013842;28;20217;-85
2022/02/02 05:59:26;;;;;;;27.70;24.80;;;;;;;;;;5013670;28;20245;-84
2022/02/02 06:01:55;;;;;;;27.17;24.63;;;;;;;;;;5013547;28;20195;-85
2022/02/02 06:04:23;;;;;;;26.65;24.80;;;;;;;;;;5013661;28;20807;-85
2022/02/02 06:06:52;;;;;;;27.15;24.60;;;;;;;;;;5013550;28;20681;-85
2022/02/02 06:09:20;;;;;;;26.73;24.42;;;;;;;;;;5013862;28;20201;-88
2022/02/02 06:11:51;;;;;;;27.40;24.45;;;;;;;;;;4995700;28;20210;-85
2022/02/02 06:14:23;;;;;;;28.35;25.70;;;;;;;;;;5013757;28;20195;-85
2022/02/02 06:16:53;;;;;;;25.55;23.70;;;;;;;;;;5013319;28;20202;-85
2022/02/02 06:19:23;;;;;;;26.88;24.35;;;;;;;;;;5013698;28;20229;-85
2022/02/02 06:21:55;;;;;;;28.77;24.73;;;;;;;;;;5013396;28;20281;-85
2022/02/02 06:24:26;;;;;;;30.58;25.25;;;;;;;;;;5013531;28;20196;-85
2022/02/02 06:26:55;;;;;;;29.73;26.75;;;;;;;;;;5013282;28;20201;-84
2022/02/02 06:29:25;;;;;;;32.53;27.70;;;;;;;;;;5013542;28;20691;-85
2022/02/02 06:31:54;;;;;;;28.70;25.95;;;;;;;;;;5013638;28;20249;-84
2022/02/02 06:34:23;;;;;;;27.85;25.70;;;;;;;;;;5013631;28;20199;-85
2022/02/02 06:36:51;;;;;;;27.13;25.20;;;;;;;;;;5013332;28;20187;-84
2022/02/02 06:39:18;;;;;;;30.33;27.35;;;;;;;;;;5013324;28;20583;-85
2022/02/02 06:41:45;;;;;;;29.63;27.38;;;;;;;;;;5013953;28;20258;-85
2022/02/02 06:44:14;;;;;;;27.65;25.23;;;;;;;;;;5016950;28;20196;-85
2022/02/02 06:46:44;;;;;;;32.92;30.35;;;;;;;;;;5017129;28;20195;-85
2022/02/02 06:49:11;;;;;;;38.67;32.10;;;;;;;;;;5016643;28;20203;-85
2022/02/02 06:51:46;;;;;;;31.23;28.92;;;;;;;;;;5016425;28;20223;-85
2022/02/02 06:54:20;;;;;;;31.60;28.50;;;;;;;;;;5016272;28;20225;-85
2022/02/02 06:56:53;;;;;;;32.30;29.38;;;;;;;;;;5016776;28;20190;-85
2022/02/02 06:59:36;;;;;;;32.25;29.23;;;;;;;;;;5016672;28;20226;-88
2022/02/02 07:05:07;;;;;;;35.92;32.88;;;;;;;;;;5016385;28;20293;-88
2022/02/02 07:07:49;;;;;;;34.85;31.45;;;;;;;;;;5016678;28;20303;-89
2022/02/02 07:10:23;;;;;;;32.95;30.10;;;;;;;;;;5016852;28;20212;-89
2022/02/02 07:13:05;;;;;;;31.05;28.85;;;;;;;;;;5016680;28;20253;-88
2022/02/02 07:15:49;;;;;;;30.10;28.08;;;;;;;;;;5016662;28;20188;-88
2022/02/02 07:18:29;;;;;;;31.05;28.27;;;;;;;;;;5016691;28;20223;-89
2022/02/02 07:21:05;;;;;;;31.45;28.50;;;;;;;;;;5016698;28;20196;-89
2022/02/02 07:23:52;;;;;;;29.80;27.10;;;;;;;;;;5016642;28;20194;-87
2022/02/02 07:29:07;;;;;;;32.05;27.55;;;;;;;;;;5011719;28;20201;-88
2022/02/02 07:31:46;;;;;;;31.45;28.10;;;;;;;;;;5016645;28;20238;-88
2022/02/02 07:34:21;;;;;;;30.35;27.95;;;;;;;;;;5016561;28;20217;-87
2022/02/02 07:36:52;;;;;;;32.65;29.20;;;;;;;;;;5015942;28;20249;-83
2022/02/02 07:39:21;;;;;;;27.25;24.98;;;;;;;;;;5015842;28;20259;-88
2022/02/02 07:41:48;;;;;;;28.90;26.15;;;;;;;;;;5016062;28;20202;-90
2022/02/02 07:44:19;;;;;;;29.45;26.63;;;;;;;;;;5016444;28;20191;-90
2022/02/02 07:46:48;;;;;;;28.65;26.42;;;;;;;;;;5015228;28;20641;-89
2022/02/02 07:49:18;;;;;;;28.60;26.55;;;;;;;;;;5015951;28;20198;-90
2022/02/02 07:51:49;;;;;;;27.30;25.30;;;;;;;;;;5016399;28;20195;-88
2022/02/02 07:54:22;;;;;;;27.83;25.35;;;;;;;;;;4997190;28;20310;-88
2022/02/02 07:56:50;;;;;;;26.85;24.58;;;;;;;;;;5015698;28;20717;-88
2022/02/02 07:59:23;;;;;;;31.30;28.17;;;;;;;;;;5015787;28;20223;-88
2022/02/02 08:01:53;;;;;;;27.15;24.73;;;;;;;;;;5015796;28;20615;-88
2022/02/02 08:04:27;;;;;;;27.42;25.00;;;;;;;;;;5015501;28;20240;-89
2022/02/02 08:06:55;;;;;;;27.58;23.80;;;;;;;;;;5015778;28;20246;-89
2022/02/02 08:09:33;;;;;;;25.30;22.80;;;;;;;;;;5015888;28;20204;-89
2022/02/02 08:12:02;;;;;;;27.50;23.42;;;;;;;;;;5015648;28;20186;-88
2022/02/02 08:14:31;;;;;;;27.02;23.48;;;;;;;;;;5015448;28;20231;-79
2022/02/02 08:16:59;;;;;;;30.17;24.40;;;;;;;;;;5015441;28;20298;-80
2022/02/02 08:19:28;;;;;;;26.20;23.70;;;;;;;;;;5014531;28;20322;-86
2022/02/02 08:21:55;;;;;;;24.45;21.95;;;;;;;;;;5014930;28;20192;-86
2022/02/02 08:24:24;;;;;;;24.42;21.98;;;;;;;;;;5015275;28;20603;-86
2022/02/02 08:26:51;;;;;;;26.58;22.73;;;;;;;;;;5014880;28;20193;-86
2022/02/02 08:29:18;;;;;;;20.23;18.98;;;;;;;;;;5014778;28;20208;-84
2022/02/02 08:31:46;;;;;;;25.42;21.13;;;;;;;;;;5014880;28;20634;-86
2022/02/02 08:34:14;;;;;;;23.98;21.80;;;;;;;;;;5014865;28;20196;-86
2022/02/02 08:36:47;;;;;;;21.48;19.77;;;;;;;;;;5015351;28;20216;-86
2022/02/02 08:39:24;;;;;;;35.78;21.35;;;;;;;;;;5014559;28;20230;-86
2022/02/02 08:41:57;;;;;;;24.13;21.65;;;;;;;;;;5014931;28;20311;-86
2022/02/02 08:44:28;;;;;;;22.77;21.17;;;;;;;;;;5014993;28;20188;-86
2022/02/02 08:47:00;;;;;;;25.45;21.27;;;;;;;;;;5014704;28;20200;-87
2022/02/02 08:49:30;;;;;;;22.88;21.20;;;;;;;;;;5014583;28;20285;-86
2022/02/02 08:52:01;;;;;;;26.00;23.50;;;;;;;;;;5014782;28;20227;-86
2022/02/02 08:54:33;;;;;;;23.67;21.65;;;;;;;;;;4997001;28;20739;-86
2022/02/02 08:57:28;;;;;;;25.10;20.98;;;;;;;;;;5014556;28;20282;-86
2022/02/02 08:59:59;;;;;;;23.63;21.20;;;;;;;;;;5014697;28;20230;-86
2022/02/02 09:02:30;;;;;;;22.00;20.05;;;;;;;;;;5014333;28;20204;-86
2022/02/02 09:05:20;;;;;;;24.13;21.80;;;;;;;;;;5014578;28;20198;-84
2022/02/02 09:07:50;;;;;;;24.38;21.58;;;;;;;;;;5012506;28;20245;-86
2022/02/02 09:10:24;;;;;;;24.13;21.92;;;;;;;;;;5014245;28;20605;-86
2022/02/02 09:24:20;;;;;;;25.88;23.35;;;;;;;;;;4953892;29;20201;-86
2022/02/02 09:34:55;;;;;;;21.60;19.63;;;;;;;;;;4942995;29;20212;-80
2022/02/02 09:37:24;;;;;;;22.45;21.20;;;;;;;;;;4953740;28;20676;-86
2022/02/02 09:40:03;;;;;;;24.42;20.30;;;;;;;;;;4953711;29;20304;-87
2022/02/02 09:42:33;;;;;;;21.77;19.92;;;;;;;;;;4953714;29;20189;-87
2022/02/02 09:45:06;;;;;;;21.13;19.27;;;;;;;;;;4953758;29;20201;-91
2022/02/02 09:47:42;;;;;;;22.67;20.40;;;;;;;;;;4952520;29;20253;-83
2022/02/02 09:50:16;;;;;;;20.52;19.33;;;;;;;;;;4952662;29;20284;-84
2022/02/02 09:52:52;;;;;;;23.65;21.35;;;;;;;;;;5013878;28;20191;-88
2022/02/02 09:55:42;;;;;;;23.58;21.45;;;;;;;;;;5013873;28;20230;-87
2022/02/02 09:58:29;;;;;;;28.75;21.35;;;;;;;;;;5013280;28;20210;-85
2022/02/02 10:01:27;;;;;;;22.70;20.90;;;;;;;;;;5013172;28;20195;-84
2022/02/02 10:04:17;;;;;;;25.38;23.00;;;;;;;;;;5013503;28;20197;-86
2022/02/02 10:06:54;;;;;;;26.70;23.30;;;;;;;;;;5013358;28;20195;-84
2022/02/02 10:09:39;;;;;;;27.98;25.15;;;;;;;;;;5013357;28;20708;-85
2022/02/02 10:12:45;;;;;;;33.30;30.33;;;;;;;;;;5013632;28;20199;-85
2022/02/02 10:15:16;;;;;;;31.10;27.92;;;;;;;;;;5013021;28;20198;-85
2022/02/02 10:17:44;;;;;;;53.42;48.17;;;;;;;;;;5016316;28;20550;-90
2022/02/02 10:20:19;;;;;;;51.72;47.67;;;;;;;;;;5017806;28;20680;-86
2022/02/02 10:22:47;;;;;;;49.20;45.40;;;;;;;;;;5018535;28;20191;-89
2022/02/02 10:25:24;;;;;;;47.40;44.20;;;;;;;;;;5000230;28;20246;-88
2022/02/02 10:27:53;;;;;;;45.90;42.40;;;;;;;;;;5017857;28;20559;-88
2022/02/02 10:30:22;;;;;;;47.47;43.80;;;;;;;;;;5017304;28;20199;-89
2022/02/02 10:32:50;;;;;;;47.90;43.85;;;;;;;;;;5016791;28;20202;-88
2022/02/02 10:35:31;;;;;;;45.08;41.35;;;;;;;;;;5016572;28;20196;-87
2022/02/02 10:37:59;;;;;;;46.70;42.85;;;;;;;;;;5017677;28;20187;-87
2022/02/02 10:40:43;;;;;;;41.63;39.13;;;;;;;;;;5017122;28;20219;-87
2022/02/02 10:43:22;;;;;;;41.80;38.65;;;;;;;;;;5017058;28;20210;-90
2022/02/02 10:45:49;;;;;;;43.95;40.30;;;;;;;;;;4999542;28;20210;-90
2022/02/02 10:48:28;;;;;;;40.85;37.60;;;;;;;;;;5017067;28;20290;-90
2022/02/02 10:51:05;;;;;;;38.53;35.90;;;;;;;;;;5016891;28;20241;-90
2022/02/02 11:06:35;;;;;;;30.80;28.65;;;;;;;;;;4977120;28;20732;-83
2022/02/02 11:07:22;;;;;;;31.45;28.77;;;;;;;;;;5016918;28;20620;-92
2022/02/02 11:09:51;;;;;;;32.03;29.33;;;;;;;;;;5016716;28;20194;-92
2022/02/02 11:12:21;;;;;;;28.63;26.67;;;;;;;;;;5016601;28;20550;-90
2022/02/02 11:14:54;;;;;;;31.52;29.17;;;;;;;;;;5016926;28;20194;-91
2022/02/02 11:17:24;;;;;;;31.88;29.20;;;;;;;;;;5016712;28;20237;-90
2022/02/02 11:19:53;;;;;;;30.95;27.95;;;;;;;;;;5016902;28;20223;-92
2022/02/02 11:22:30;;;;;;;27.77;25.42;;;;;;;;;;5017095;28;20202;-91
2022/02/02 11:24:59;;;;;;;29.83;27.52;;;;;;;;;;5016601;28;20193;-91
2022/02/02 11:27:37;;;;;;;30.40;27.95;;;;;;;;;;5016088;28;20262;-90
2022/02/02 11:30:08;;;;;;;29.23;27.05;;;;;;;;;;5016284;28;20212;-88
2022/02/02 11:32:45;;;;;;;31.15;28.70;;;;;;;;;;5015972;28;20664;-84
2022/02/02 11:35:35;;;;;;;29.15;27.35;;;;;;;;;;5015346;28;20195;-84
2022/02/02 11:38:05;;;;;;;32.58;29.83;;;;;;;;;;5015178;28;20662;-84
2022/02/02 11:40:40;;;;;;;29.00;26.40;;;;;;;;;;5015259;28;20219;-83
2022/02/02 11:43:12;;;;;;;27.85;24.92;;;;;;;;;;5015114;28;20212;-84
2022/02/02 11:46:00;;;;;;;40.15;26.92;;;;;;;;;;5015427;28;20188;-82
2022/02/02 11:48:54;;;;;;;24.70;22.25;;;;;;;;;;5015840;28;20191;-85
2022/02/02 11:51:36;;;;;;;24.02;21.88;;;;;;;;;;5014851;28;20184;-83
2022/02/02 11:54:04;;;;;;;25.85;22.75;;;;;;;;;;5014977;28;20231;-83
2022/02/02 11:56:32;;;;;;;21.73;19.70;;;;;;;;;;5014514;28;20203;-82
2022/02/02 11:59:00;;;;;;;25.80;21.60;;;;;;;;;;5014377;28;20199;-82
2022/02/02 12:01:40;;;;;;;24.23;21.92;;;;;;;;;;5014676;28;20311;-82
2022/02/02 12:04:22;;;;;;;19.90;18.80;;;;;;;;;;5014680;28;20199;-82
2022/02/02 12:07:00;;;;;;;23.50;21.05;;;;;;;;;;5014262;28;20231;-82
2022/02/02 12:09:42;;;;;;;23.27;20.85;;;;;;;;;;5014562;28;20191;-83
2022/02/02 12:46:27;;;;;;;29.58;21.38;;;;;;;;;;5014006;28;20190;-83
2022/02/02 12:57:09;;;;;;;22.30;20.00;;;;;;;;;;5013126;28;20192;-82
2022/02/02 13:02:20;;;;;;;21.85;20.05;;;;;;;;;;5009929;28;20256;-82
2022/02/02 13:04:49;;;;;;;22.33;20.33;;;;;;;;;;5013859;28;20197;-83
2022/02/02 13:07:19;;;;;;;20.98;19.45;;;;;;;;;;5012438;28;20237;-82
2022/02/02 13:09:48;;;;;;;22.65;21.00;;;;;;;;;;5013067;28;20198;-84
2022/02/02 13:12:20;;;;;;;21.17;19.08;;;;;;;;;;5013495;28;20193;-84
2022/02/02 13:15:06;;;;;;;20.60;19.30;;;;;;;;;;5013682;28;20248;-84
2022/02/02 13:17:48;;;;;;;22.90;20.70;;;;;;;;;;5013353;28;20982;-84
2022/02/02 13:20:17;;;;;;;27.73;20.93;;;;;;;;;;5013414;28;20852;-83
2022/02/02 13:22:51;;;;;;;21.98;19.98;;;;;;;;;;5013352;28;20522;-84
2022/02/02 13:25:22;;;;;;;22.83;20.93;;;;;;;;;;5013648;28;20199;-83
2022/02/02 13:27:50;;;;;;;22.27;20.48;;;;;;;;;;5013516;28;20443;-84
2022/02/02 13:30:41;;;;;;;23.23;21.20;;;;;;;;;;5013757;28;20198;-86
2022/02/02 13:33:23;;;;;;;22.25;20.67;;;;;;;;;;5013906;28;20451;-84
2022/02/02 13:36:16;;;;;;;22.50;20.20;;;;;;;;;;5013307;28;20627;-85
2022/02/02 13:39:10;;;;;;;22.57;20.70;;;;;;;;;;5013736;28;20193;-84
2022/02/02 13:44:48;;;;;;;25.80;21.00;;;;;;;;;;5013240;28;20258;-85
2022/02/02 13:47:53;;;;;;;23.02;20.83;;;;;;;;;;5013072;28;20291;-85
2022/02/02 13:56:17;;;;;;;24.23;21.73;;;;;;;;;;4984734;28;20675;-84
2022/02/02 13:58:59;;;;;;;23.65;21.30;;;;;;;;;;5017230;28;20281;-85
2022/02/02 14:01:34;;;;;;;24.60;21.95;;;;;;;;;;5017062;28;20239;-84
2022/02/02 14:04:15;;;;;;;23.33;21.08;;;;;;;;;;4999993;28;20207;-85
2022/02/02 14:06:51;;;;;;;27.48;21.92;;;;;;;;;;5017376;28;20618;-84
2022/02/02 14:09:26;;;;;;;23.65;21.30;;;;;;;;;;5017490;28;20275;-84
2022/02/02 14:31:23;;;;;;;22.23;20.80;;;;;;;;;;4956538;29;20283;-85
2022/02/02 14:33:52;;;;;;;21.92;20.45;;;;;;;;;;4956472;29;20205;-85
2022/02/02 14:36:22;;;;;;;21.80;20.30;;;;;;;;;;4956321;29;20191;-85
2022/02/02 14:38:54;;;;;;;22.63;20.88;;;;;;;;;;4940757;29;20645;-85
2022/02/02 14:41:30;;;;;;;23.15;20.98;;;;;;;;;;4955703;29;20693;-86
2022/02/02 14:44:03;;;;;;;22.60;20.90;;;;;;;;;;4956099;29;20241;-84
2022/02/02 14:46:35;;;;;;;22.58;20.85;;;;;;;;;;4955852;29;20214;-84
2022/02/02 14:49:07;;;;;;;23.02;21.27;;;;;;;;;;4955910;29;20201;-85
2022/02/02 14:51:46;;;;;;;22.47;20.60;;;;;;;;;;4955629;29;20234;-84
2022/02/02 14:54:32;;;;;;;21.95;20.55;;;;;;;;;;4955612;29;20453;-84
2022/02/02 15:05:41;;;;;;;24.02;22.00;;;;;;;;;;5015792;28;20203;-82
2022/02/02 15:27:34;;;;;;;22.30;20.67;;;;;;;;;;5014524;28;20609;-79
2022/02/02 15:30:21;;;;;;;23.35;21.30;;;;;;;;;;5014979;28;20444;-79
2022/02/02 15:32:52;;;;;;;22.77;20.90;;;;;;;;;;4997365;28;20669;-79
2022/02/02 15:35:21;;;;;;;21.48;19.77;;;;;;;;;;5015031;28;20237;-79
2022/02/02 15:37:56;;;;;;;22.60;20.50;;;;;;;;;;5015129;28;20197;-81
2022/02/02 15:40:28;;;;;;;22.30;20.40;;;;;;;;;;5015010;28;20255;-79
2022/02/02 16:02:12;;;;;;;22.83;21.03;;;;;;;;;;4983589;28;20239;-79
2022/02/02 16:04:42;;;;;;;22.55;20.70;;;;;;;;;;5014369;28;20952;-79
2022/02/02 16:07:12;;;;;;;22.42;20.60;;;;;;;;;;5014272;28;20271;-79
2022/02/02 16:09:48;;;;;;;23.08;20.95;;;;;;;;;;4997110;28;20621;-78
2022/02/02 16:12:20;;;;;;;22.30;20.45;;;;;;;;;;5014061;28;20212;-79
2022/02/02 16:14:52;;;;;;;22.13;20.42;;;;;;;;;;5013460;28;20193;-79
2022/02/02 16:36:41;;;;;;;22.55;20.83;;;;;;;;;;5015294;28;20286;-87
2022/02/02 16:39:11;;;;;;;22.67;20.55;;;;;;;;;;5015158;28;20196;-87
2022/02/02 16:44:24;;;;;;;24.75;22.25;;;;;;;;;;5014778;28;20196;-86
2022/02/02 16:46:52;;;;;;;23.70;21.30;;;;;;;;;;5014880;28;20613;-86
2022/02/02 16:49:20;;;;;;;22.38;20.73;;;;;;;;;;5014711;28;20199;-86
2022/02/02 16:51:49;;;;;;;22.85;20.83;;;;;;;;;;5014301;28;20223;-85
2022/02/02 16:54:22;;;;;;;22.40;20.90;;;;;;;;;;5014774;28;20242;-88
2022/02/02 17:30:30;;;;;;;24.60;22.50;;;;;;;;;;4859143;29;20213;-84
2022/02/02 17:33:02;;;;;;;24.10;22.00;;;;;;;;;;4902783;29;20203;-85
2022/02/02 17:35:38;;;;;;;23.73;21.88;;;;;;;;;;4953682;29;20228;-85
2022/02/02 17:38:13;;;;;;;23.58;21.70;;;;;;;;;;4953714;29;20195;-85
2022/02/02 17:41:12;;;;;;;23.15;21.20;;;;;;;;;;4953129;29;20228;-85
2022/02/02 18:01:26;;;;;;;23.95;21.85;;;;;;;;;;5030401;28;20299;-80
2022/02/02 18:20:10;;;;;;;22.65;20.80;;;;;;;;;;5029549;28;20229;-81
2022/02/02 18:22:43;;;;;;;22.27;20.67;;;;;;;;;;5031577;28;20851;-81
2022/02/02 18:25:16;;;;;;;22.40;20.90;;;;;;;;;;5028514;28;20241;-82
2022/02/02 18:27:50;;;;;;;24.80;22.90;;;;;;;;;;5099657;28;20207;-81
2022/02/02 18:33:13;;;;;;;24.90;22.58;;;;;;;;;;5098598;28;20278;-82
2022/02/02 18:35:48;;;;;;;26.05;23.90;;;;;;;;;;5096569;28;20211;-81
2022/02/02 18:55:04;;;;;;;29.67;27.15;;;;;;;;;;5043549;28;20267;-81
2022/02/02 18:57:43;;;;;;;30.23;27.40;;;;;;;;;;5031913;28;20212;-81
2022/02/02 19:00:23;;;;;;;30.13;27.30;;;;;;;;;;5030275;28;20209;-84
2022/02/02 19:52:55;;;;;;;35.15;31.98;;;;;;;;;;5001198;28;20246;-80
2022/02/02 19:55:29;;;;;;;36.03;33.08;;;;;;;;;;5002301;28;20209;-83
2022/02/02 20:06:36;;;;;;;35.97;32.72;;;;;;;;;;5083315;28;20241;-82
2022/02/02 20:12:05;;;;;;;34.38;30.80;;;;;;;;;;5023968;28;21204;-81
2022/02/02 20:14:34;;;;;;;34.83;31.67;;;;;;;;;;5021963;28;20743;-82
2022/02/02 20:17:03;;;;;;;34.63;31.52;;;;;;;;;;5020550;28;20243;-82
2022/02/02 20:19:31;;;;;;;35.25;32.15;;;;;;;;;;5022901;28;20209;-82
2022/02/02 20:21:59;;;;;;;34.63;31.58;;;;;;;;;;5020567;28;20214;-82
2022/02/02 20:24:37;;;;;;;36.47;33.03;;;;;;;;;;5021997;28;20216;-82
2022/02/02 20:27:04;;;;;;;34.30;31.40;;;;;;;;;;5020848;28;20742;-82
2022/02/02 20:29:34;;;;;;;35.53;32.28;;;;;;;;;;5010374;28;20215;-83
2022/02/02 20:32:01;;;;;;;32.05;29.15;;;;;;;;;;5020839;28;20235;-82
2022/02/02 20:34:28;;;;;;;33.63;30.33;;;;;;;;;;5022301;28;20216;-82
2022/02/02 20:36:56;;;;;;;34.05;30.80;;;;;;;;;;5018231;28;20205;-80
2022/02/02 20:39:36;;;;;;;29.80;27.40;;;;;;;;;;4992955;28;20221;-80
2022/02/02 20:42:06;;;;;;;31.52;28.90;;;;;;;;;;5027194;28;20203;-80
2022/02/02 20:44:59;;;;;;;28.33;25.98;;;;;;;;;;5079227;28;20600;-80
2022/02/02 21:07:00;;;;;;;30.38;28.05;;;;;;;;;;4999753;28;20265;-82
2022/02/02 21:09:51;;;;;;;31.10;28.17;;;;;;;;;;5027358;28;20236;-81
2022/02/02 21:15:11;;;;;;;28.25;25.70;;;;;;;;;;5026658;28;20686;-82
2022/02/02 21:17:41;;;;;;;28.40;26.20;;;;;;;;;;5026765;28;20292;-82
2022/02/02 21:20:15;;;;;;;29.95;27.00;;;;;;;;;;5026513;28;20314;-81
2022/02/02 21:23:11;;;;;;;29.27;27.00;;;;;;;;;;5026800;28;20212;-83
2022/02/02 21:25:47;;;;;;;29.60;27.10;;;;;;;;;;5010803;28;20253;-82
2022/02/02 21:28:14;;;;;;;29.60;26.88;;;;;;;;;;5011788;28;20206;-81
2022/02/02 21:30:44;;;;;;;27.10;24.70;;;;;;;;;;5026585;28;20213;-82
2022/02/02 21:33:15;;;;;;;31.05;28.00;;;;;;;;;;5026643;28;20238;-82
2022/02/02 21:35:45;;;;;;;27.50;25.35;;;;;;;;;;5011003;28;20686;-82
2022/02/02 21:38:19;;;;;;;27.90;25.88;;;;;;;;;;5026998;28;20307;-82
2022/02/02 21:40:52;;;;;;;27.40;25.42;;;;;;;;;;5074763;28;20633;-82
2022/02/02 21:43:20;;;;;;;26.67;24.48;;;;;;;;;;5081451;28;20212;-82
2022/02/02 21:45:47;;;;;;;27.20;24.70;;;;;;;;;;5079737;28;20327;-82
2022/02/02 21:48:17;;;;;;;25.40;23.40;;;;;;;;;;5063129;28;20208;-81
2022/02/02 21:50:51;;;;;;;27.90;25.08;;;;;;;;;;5089314;28;20694;-82
2022/02/02 21:53:18;;;;;;;27.63;25.38;;;;;;;;;;5076470;28;20191;-82
2022/02/02 21:55:45;;;;;;;27.00;24.85;;;;;;;;;;5093479;28;20188;-82
2022/02/02 21:58:13;;;;;;;26.98;24.67;;;;;;;;;;5075061;28;20205;-82
2022/02/02 22:00:41;;;;;;;26.05;24.00;;;;;;;;;;5092952;28;20198;-82
2022/02/02 22:03:08;;;;;;;24.73;22.83;;;;;;;;;;5075584;28;20243;-83
2022/02/02 22:05:37;;;;;;;25.33;23.13;;;;;;;;;;5093512;28;20208;-83
2022/02/02 22:08:08;;;;;;;25.48;23.42;;;;;;;;;;5093318;28;20222;-82
2022/02/02 22:10:35;;;;;;;25.80;23.55;;;;;;;;;;5093956;28;20630;-82
2022/02/02 22:13:03;;;;;;;24.80;23.10;;;;;;;;;;5092812;28;20191;-83
2022/02/02 22:15:39;;;;;;;25.75;23.02;;;;;;;;;;5093632;28;20260;-84
2022/02/02 22:18:06;;;;;;;24.00;22.05;;;;;;;;;;5059974;28;20650;-83
2022/02/02 22:20:34;;;;;;;24.60;22.50;;;;;;;;;;5093205;28;20197;-82
2022/02/02 22:23:03;;;;;;;25.27;23.17;;;;;;;;;;5093407;28;20850;-83
2022/02/02 22:25:31;;;;;;;25.42;23.23;;;;;;;;;;5091757;28;20273;-83
2022/02/02 22:27:58;;;;;;;25.13;23.02;;;;;;;;;;5093275;28;20192;-83
2022/02/02 22:30:26;;;;;;;24.45;22.85;;;;;;;;;;5092797;28;20192;-82
2022/02/02 22:32:53;;;;;;;25.98;23.50;;;;;;;;;;5095924;28;20192;-83
2022/02/02 22:35:21;;;;;;;27.20;24.83;;;;;;;;;;5096914;28;20274;-83
2022/02/02 22:37:48;;;;;;;25.35;23.15;;;;;;;;;;5096835;28;20230;-83
2022/02/02 22:40:23;;;;;;;32.08;26.75;;;;;;;;;;5096708;28;20187;-83
2022/02/02 22:42:50;;;;;;;27.08;24.90;;;;;;;;;;5096627;28;20554;-82
2022/02/02 22:45:19;;;;;;;27.95;25.02;;;;;;;;;;5087751;28;20237;-81
2022/02/02 22:47:57;;;;;;;25.42;23.23;;;;;;;;;;5090655;28;20197;-81
2022/02/02 22:50:30;;;;;;;28.35;25.70;;;;;;;;;;5091465;28;20197;-82
2022/02/02 22:53:10;;;;;;;26.58;24.20;;;;;;;;;;5084317;28;20211;-82
2022/02/02 22:55:51;;;;;;;27.75;24.85;;;;;;;;;;5090760;28;20277;-83
2022/02/02 22:58:22;;;;;;;26.30;24.05;;;;;;;;;;5089215;28;20184;-82
2022/02/02 23:00:54;;;;;;;27.48;25.15;;;;;;;;;;5088671;28;20193;-82
2022/02/02 23:03:24;;;;;;;26.92;24.70;;;;;;;;;;5091202;28;20195;-83
2022/02/02 23:05:55;;;;;;;25.83;23.83;;;;;;;;;;5254561;22;20196;-82
2022/02/02 23:08:25;;;;;;;26.83;24.38;;;;;;;;;;5038238;28;20544;-83
2022/02/02 23:10:54;;;;;;;28.85;25.65;;;;;;;;;;5036390;28;20285;-82
2022/02/02 23:13:22;;;;;;;27.75;24.95;;;;;;;;;;5020925;28;20202;-83
2022/02/02 23:15:55;;;;;;;26.30;24.35;;;;;;;;;;5020439;28;20263;-82
2022/02/02 23:18:34;;;;;;;26.50;24.30;;;;;;;;;;5037439;28;20198;-83
2022/02/02 23:21:05;;;;;;;25.40;23.45;;;;;;;;;;5036941;28;20201;-82
2022/02/02 23:23:34;;;;;;;25.92;23.88;;;;;;;;;;5036870;28;20185;-83